Time;durP1;ratioP1;P1;durP2;ratioP2;P2;SDS_P1;SDS_P2;PMS_P1;PMS_P2;Temp;Humidity;BMP_temperature;BMP_pressure;BME280_temperature;BME280_humidity;BME280_pressure;Samples;Min_cycle;Max_cycle;Signal;HPM_P1;HPM_P2
2023/02/13 00:01:56;;;;;;;9.73;2.83;;;;;;;;;;5108612;28;20047;-77
2023/02/13 00:04:27;;;;;;;7.68;2.88;;;;;;;;;;5108221;28;20044;-76
2023/02/13 00:06:59;;;;;;;6.43;2.53;;;;;;;;;;5108887;28;20066;-77
2023/02/13 00:09:30;;;;;;;6.30;3.15;;;;;;;;;;5108717;28;20059;-76
2023/02/13 00:12:01;;;;;;;4.72;2.83;;;;;;;;;;5108631;28;20051;-76
2023/02/13 00:14:39;;;;;;;7.75;2.92;;;;;;;;;;5107865;28;20047;-76
2023/02/13 00:17:11;;;;;;;4.85;2.60;;;;;;;;;;5108222;28;20217;-76
2023/02/13 00:19:41;;;;;;;4.70;2.72;;;;;;;;;;5108178;28;20734;-76
2023/02/13 00:22:11;;;;;;;7.93;2.92;;;;;;;;;;5099685;28;20040;-76
2023/02/13 00:24:43;;;;;;;4.95;2.97;;;;;;;;;;5098325;28;20039;-75
2023/02/13 00:27:13;;;;;;;5.88;3.03;;;;;;;;;;5099013;28;20497;-77
2023/02/13 00:29:43;;;;;;;7.40;3.30;;;;;;;;;;5098530;28;20681;-76
2023/02/13 00:32:14;;;;;;;10.82;3.50;;;;;;;;;;5078549;28;20059;-76
2023/02/13 00:34:45;;;;;;;7.07;3.38;;;;;;;;;;5096654;28;20044;-76
2023/02/13 00:37:16;;;;;;;10.10;3.67;;;;;;;;;;5097265;28;20035;-76
2023/02/13 00:39:46;;;;;;;8.35;3.30;;;;;;;;;;5099070;28;20810;-76
2023/02/13 00:42:19;;;;;;;5.97;3.60;;;;;;;;;;5078752;28;20040;-76
2023/02/13 00:44:50;;;;;;;10.60;3.72;;;;;;;;;;5077910;28;20044;-76
2023/02/13 00:47:21;;;;;;;10.95;3.25;;;;;;;;;;5098420;28;20044;-76
2023/02/13 00:50:19;;;;;;;8.88;3.33;;;;;;;;;;5096214;28;20048;-77
2023/02/13 00:53:09;;;;;;;12.45;3.45;;;;;;;;;;5078056;28;20052;-75
2023/02/13 00:55:40;;;;;;;10.55;3.38;;;;;;;;;;5097514;28;20044;-76
2023/02/13 00:58:10;;;;;;;11.15;3.65;;;;;;;;;;5071309;28;20502;-77
2023/02/13 01:00:55;;;;;;;11.13;4.03;;;;;;;;;;5068475;28;20051;-76
2023/02/13 01:03:26;;;;;;;6.90;3.30;;;;;;;;;;5068825;28;20606;-78
2023/02/13 01:05:57;;;;;;;9.82;3.35;;;;;;;;;;5086883;28;20047;-76
2023/02/13 01:08:28;;;;;;;12.70;3.55;;;;;;;;;;5087414;28;20498;-76
2023/02/13 01:11:02;;;;;;;5.20;3.40;;;;;;;;;;5086423;28;20526;-77
2023/02/13 01:13:32;;;;;;;7.80;3.67;;;;;;;;;;5086967;28;20028;-77
2023/02/13 01:16:02;;;;;;;8.35;3.55;;;;;;;;;;5067696;28;20044;-76
2023/02/13 01:18:33;;;;;;;8.60;3.53;;;;;;;;;;5069243;28;20043;-78
2023/02/13 01:21:06;;;;;;;10.55;3.80;;;;;;;;;;5087111;28;20058;-76
2023/02/13 01:23:38;;;;;;;10.95;3.85;;;;;;;;;;5086768;28;20074;-76
2023/02/13 01:26:19;;;;;;;10.45;3.97;;;;;;;;;;5087144;28;20036;-76
2023/02/13 01:28:53;;;;;;;;;;;;;;;;;;5087434;28;20040;-76
2023/02/13 01:31:24;;;;;;;13.23;4.00;;;;;;;;;;5087791;28;19935;-75
2023/02/13 01:33:58;;;;;;;8.30;3.63;;;;;;;;;;5068476;28;20494;-76
2023/02/13 01:36:37;;;;;;;7.90;3.75;;;;;;;;;;5087451;28;20389;-76
2023/02/13 01:39:11;;;;;;;8.40;3.47;;;;;;;;;;5086552;28;20051;-76
2023/02/13 01:41:52;;;;;;;;;;;;;;;;;;;;;
2023/02/13 01:44:47;;;;;;;7.55;3.97;;;;;;;;;;5066296;28;20060;-76
2023/02/13 01:47:25;;;;;;;10.52;4.15;;;;;;;;;;5086896;28;20067;-76
2023/02/13 01:50:08;;;;;;;10.13;4.22;;;;;;;;;;5087076;28;20407;-76
2023/02/13 01:53:02;;;;;;;9.10;4.25;;;;;;;;;;5068369;28;20511;-76
2023/02/13 01:55:38;;;;;;;7.30;3.97;;;;;;;;;;5075641;28;20093;-76
2023/02/13 01:58:13;;;;;;;8.63;4.47;;;;;;;;;;5068221;28;20055;-76
2023/02/13 02:00:48;;;;;;;7.65;4.32;;;;;;;;;;5068154;28;20410;-75
2023/02/13 02:03:44;;;;;;;16.15;4.55;;;;;;;;;;5086704;28;20062;-76
2023/02/13 02:06:30;;;;;;;8.55;4.90;;;;;;;;;;5024548;28;20061;-76
2023/02/13 02:09:11;;;;;;;7.88;4.30;;;;;;;;;;5068366;28;20071;-76
2023/02/13 02:12:07;;;;;;;10.85;4.85;;;;;;;;;;5068271;28;20052;-76
2023/02/13 02:14:41;;;;;;;8.13;4.57;;;;;;;;;;5068069;28;20410;-75
2023/02/13 02:17:12;;;;;;;8.70;4.78;;;;;;;;;;5068331;28;20059;-75
2023/02/13 02:20:09;;;;;;;6.05;4.72;;;;;;;;;;5087501;28;20040;-75
2023/02/13 02:23:26;;;;;;;10.43;4.70;;;;;;;;;;5067645;28;20055;-75
2023/02/13 02:26:16;;;;;;;9.23;5.63;;;;;;;;;;5052898;28;20052;-76
2023/02/13 02:29:19;;;;;;;13.18;5.20;;;;;;;;;;5067231;28;20422;-77
2023/02/13 02:32:31;;;;;;;8.27;4.40;;;;;;;;;;5067678;28;20403;-78
2023/02/13 02:35:23;;;;;;;8.73;5.13;;;;;;;;;;5086580;28;20052;-76
2023/02/13 02:38:13;;;;;;;8.68;4.43;;;;;;;;;;5067496;28;20055;-76
2023/02/13 02:41:40;;;;;;;7.00;4.38;;;;;;;;;;5068132;28;20059;-77
2023/02/13 02:44:33;;;;;;;8.43;4.30;;;;;;;;;;5067203;28;20047;-76
2023/02/13 02:50:26;;;;;;;6.25;4.05;;;;;;;;;;5087401;28;20048;-76
2023/02/13 02:53:10;;;;;;;9.88;4.10;;;;;;;;;;5070971;28;20048;-76
2023/02/13 02:55:55;;;;;;;6.35;3.83;;;;;;;;;;5070830;28;20415;-76
2023/02/13 03:07:24;;;;;;;7.15;3.25;;;;;;;;;;5089747;28;19928;-74
2023/02/13 03:13:21;;;;;;;4.45;3.28;;;;;;;;;;5089812;28;20403;-76
2023/02/13 03:22:17;;;;;;;4.30;3.38;;;;;;;;;;5089496;28;20044;-75
2023/02/13 03:25:03;;;;;;;5.03;3.13;;;;;;;;;;5089412;28;20044;-76
2023/02/13 03:30:55;;;;;;;4.18;3.25;;;;;;;;;;5089206;28;20044;-76
2023/02/13 03:33:45;;;;;;;6.10;2.65;;;;;;;;;;5088257;28;20052;-76
2023/02/13 03:39:58;;;;;;;6.40;3.13;;;;;;;;;;5088551;28;20044;-76
2023/02/13 03:42:55;;;;;;;5.03;3.20;;;;;;;;;;5070540;28;20048;-76
2023/02/13 03:51:33;;;;;;;7.85;3.25;;;;;;;;;;5089418;28;20047;-76
2023/02/13 04:00:45;;;;;;;3.72;2.92;;;;;;;;;;5088355;28;20059;-75
2023/02/13 04:03:35;;;;;;;10.35;3.03;;;;;;;;;;5088595;28;20048;-75
2023/02/13 04:06:12;;;;;;;6.90;3.13;;;;;;;;;;5088480;28;20051;-76
2023/02/13 04:08:42;;;;;;;4.95;3.05;;;;;;;;;;5088481;28;20048;-75
2023/02/13 04:11:35;;;;;;;6.65;2.97;;;;;;;;;;5088318;28;20055;-74
2023/02/13 04:14:39;;;;;;;4.40;2.80;;;;;;;;;;5088430;28;20052;-74
2023/02/13 04:17:39;;;;;;;5.80;3.03;;;;;;;;;;5070921;28;20067;-76
2023/02/13 04:20:10;;;;;;;4.18;2.67;;;;;;;;;;5088579;28;20052;-75
2023/02/13 04:22:48;;;;;;;5.15;2.80;;;;;;;;;;5088221;28;20048;-75
2023/02/13 04:25:19;;;;;;;5.15;3.03;;;;;;;;;;5087965;28;20055;-75
2023/02/13 04:27:50;;;;;;;6.15;3.08;;;;;;;;;;5087839;28;20044;-75
2023/02/13 04:30:40;;;;;;;6.40;3.40;;;;;;;;;;5087188;28;20051;-75
2023/02/13 04:33:11;;;;;;;7.57;3.03;;;;;;;;;;5088055;28;20048;-75
2023/02/13 04:35:41;;;;;;;4.90;3.15;;;;;;;;;;5069323;28;20055;-75
2023/02/13 04:38:12;;;;;;;6.22;2.90;;;;;;;;;;5087708;28;20048;-76
2023/02/13 04:40:42;;;;;;;6.45;3.17;;;;;;;;;;5087797;28;20126;-74
2023/02/13 04:43:12;;;;;;;5.43;2.70;;;;;;;;;;5087983;28;20495;-75
2023/02/13 04:45:43;;;;;;;10.13;3.08;;;;;;;;;;5088287;28;20422;-75
2023/02/13 04:48:30;;;;;;;6.80;3.20;;;;;;;;;;5047643;28;20056;-76
2023/02/13 04:51:00;;;;;;;7.15;3.28;;;;;;;;;;5047411;28;20373;-75
2023/02/13 04:53:30;;;;;;;5.95;3.00;;;;;;;;;;5047863;28;20037;-76
2023/02/13 04:56:02;;;;;;;5.75;2.83;;;;;;;;;;5047110;28;20041;-76
2023/02/13 04:58:33;;;;;;;5.65;2.78;;;;;;;;;;5047758;28;20496;-75
2023/02/13 05:01:10;;;;;;;6.30;3.15;;;;;;;;;;5046921;28;20052;-75
2023/02/13 05:03:40;;;;;;;7.47;2.90;;;;;;;;;;5047543;28;20052;-75
2023/02/13 05:06:12;;;;;;;4.82;2.72;;;;;;;;;;5047287;28;20515;-75
2023/02/13 05:08:43;;;;;;;7.47;3.15;;;;;;;;;;5047746;28;20061;-76
2023/02/13 05:11:12;;;;;;;5.25;2.85;;;;;;;;;;5047550;28;20045;-75
2023/02/13 05:13:44;;;;;;;13.15;2.90;;;;;;;;;;5046895;28;20159;-75
2023/02/13 05:16:14;;;;;;;6.22;3.60;;;;;;;;;;5045792;28;20053;-75
2023/02/13 05:18:56;;;;;;;8.80;3.55;;;;;;;;;;5047182;28;20037;-75
2023/02/13 05:24:22;;;;;;;6.32;2.55;;;;;;;;;;5047615;28;20053;-75
2023/02/13 05:26:53;;;;;;;11.48;3.15;;;;;;;;;;5047084;28;20055;-76
2023/02/13 05:29:24;;;;;;;5.57;3.00;;;;;;;;;;5047040;28;20531;-75
2023/02/13 05:31:56;;;;;;;5.68;2.83;;;;;;;;;;5047032;28;20090;-75
2023/02/13 05:34:27;;;;;;;5.53;3.05;;;;;;;;;;5047055;28;20056;-75
2023/02/13 05:36:59;;;;;;;4.75;2.85;;;;;;;;;;5046558;28;20045;-76
2023/02/13 05:39:30;;;;;;;8.45;3.22;;;;;;;;;;5045500;28;20041;-75
2023/02/13 05:41:59;;;;;;;4.53;3.03;;;;;;;;;;5046316;28;20052;-76
2023/02/13 05:44:30;;;;;;;3.60;3.00;;;;;;;;;;5046400;28;20053;-76
2023/02/13 05:47:02;;;;;;;4.97;3.13;;;;;;;;;;5064501;28;20059;-74
2023/02/13 05:49:34;;;;;;;9.32;3.00;;;;;;;;;;5085689;28;20047;-76
2023/02/13 05:52:04;;;;;;;5.13;3.10;;;;;;;;;;5087171;28;20067;-75
2023/02/13 05:54:34;;;;;;;7.10;3.13;;;;;;;;;;5086918;28;20069;-75
2023/02/13 05:57:04;;;;;;;4.43;2.90;;;;;;;;;;5087208;28;20040;-75
2023/02/13 05:59:45;;;;;;;;;;;;;;;;;;;;;
2023/02/13 06:02:15;;;;;;;5.07;3.13;;;;;;;;;;5065853;28;20060;-75
2023/02/13 06:04:46;;;;;;;4.30;2.95;;;;;;;;;;5086416;28;20052;-75
2023/02/13 06:07:24;;;;;;;3.65;3.05;;;;;;;;;;5086819;28;20059;-76
2023/02/13 06:09:57;;;;;;;5.78;3.10;;;;;;;;;;5067611;28;20051;-76
2023/02/13 06:12:28;;;;;;;8.27;3.10;;;;;;;;;;5086679;28;20048;-75
2023/02/13 06:15:01;;;;;;;7.97;3.30;;;;;;;;;;5069239;28;20044;-76
2023/02/13 06:17:31;;;;;;;6.55;3.20;;;;;;;;;;5086523;28;20048;-75
2023/02/13 06:20:01;;;;;;;5.00;3.13;;;;;;;;;;5086892;28;20056;-76
2023/02/13 06:22:32;;;;;;;4.10;3.17;;;;;;;;;;5090619;28;20052;-76
2023/02/13 06:25:03;;;;;;;4.15;3.10;;;;;;;;;;5090890;28;20051;-75
2023/02/13 06:27:33;;;;;;;5.38;3.28;;;;;;;;;;5090513;28;20048;-75
2023/02/13 06:30:04;;;;;;;4.90;2.72;;;;;;;;;;5072331;28;20541;-75
2023/02/13 06:32:34;;;;;;;8.98;3.28;;;;;;;;;;5090002;28;20050;-75
2023/02/13 06:35:06;;;;;;;12.00;3.45;;;;;;;;;;5090639;28;20048;-75
2023/02/13 06:37:38;;;;;;;5.97;3.17;;;;;;;;;;5072354;28;20052;-75
2023/02/13 06:40:09;;;;;;;6.43;3.65;;;;;;;;;;5090507;28;20066;-75
2023/02/13 06:42:42;;;;;;;4.88;2.95;;;;;;;;;;5090509;28;20044;-74
2023/02/13 06:45:14;;;;;;;5.90;3.25;;;;;;;;;;5090707;28;20048;-75
2023/02/13 06:47:46;;;;;;;9.95;3.22;;;;;;;;;;5090080;28;20063;-75
2023/02/13 06:50:17;;;;;;;7.25;3.03;;;;;;;;;;5089821;28;20044;-75
2023/02/13 06:52:58;;;;;;;7.90;3.17;;;;;;;;;;5089866;28;20043;-75
2023/02/13 06:55:29;;;;;;;8.63;3.20;;;;;;;;;;5090683;28;20074;-75
2023/02/13 06:57:59;;;;;;;6.85;3.17;;;;;;;;;;5089452;28;20044;-75
2023/02/13 07:00:30;;;;;;;6.43;3.50;;;;;;;;;;5089548;28;20511;-76
2023/02/13 07:03:05;;;;;;;9.40;3.50;;;;;;;;;;5090456;28;20044;-75
2023/02/13 07:05:42;;;;;;;5.93;3.13;;;;;;;;;;5089676;28;20640;-76
2023/02/13 07:08:12;;;;;;;6.38;3.08;;;;;;;;;;5089441;28;20051;-76
2023/02/13 07:10:43;;;;;;;5.13;3.30;;;;;;;;;;5090229;28;20059;-75
2023/02/13 07:13:13;;;;;;;7.30;3.38;;;;;;;;;;5089918;28;20059;-76
2023/02/13 07:15:45;;;;;;;4.97;3.17;;;;;;;;;;5089944;28;20036;-76
2023/02/13 07:18:14;;;;;;;8.98;2.97;;;;;;;;;;5070341;28;20083;-75
2023/02/13 07:20:45;;;;;;;10.45;3.45;;;;;;;;;;5069877;28;20048;-75
2023/02/13 07:23:15;;;;;;;5.57;3.20;;;;;;;;;;5089458;28;20048;-75
2023/02/13 07:25:45;;;;;;;7.22;3.40;;;;;;;;;;5089239;28;20495;-74
2023/02/13 07:28:16;;;;;;;4.97;3.45;;;;;;;;;;5089291;28;20044;-75
2023/02/13 07:30:46;;;;;;;7.13;3.55;;;;;;;;;;5089385;28;20040;-75
2023/02/13 07:36:08;;;;;;;6.35;3.25;;;;;;;;;;5089365;28;20402;-75
2023/02/13 07:38:38;;;;;;;6.93;3.42;;;;;;;;;;5088799;28;20592;-76
2023/02/13 07:41:09;;;;;;;6.20;3.08;;;;;;;;;;5089199;28;20051;-74
2023/02/13 07:43:38;;;;;;;5.57;3.40;;;;;;;;;;5089341;28;20047;-75
2023/02/13 07:46:10;;;;;;;6.53;3.17;;;;;;;;;;5088495;28;20048;-75
2023/02/13 07:48:40;;;;;;;6.75;3.40;;;;;;;;;;5088675;28;20071;-76
2023/02/13 07:51:11;;;;;;;13.20;3.90;;;;;;;;;;5088675;28;20055;-75
2023/02/13 07:53:40;;;;;;;5.53;3.40;;;;;;;;;;5088846;28;20525;-75
2023/02/13 07:56:12;;;;;;;13.68;4.57;;;;;;;;;;5088815;28;20048;-75
2023/02/13 07:58:44;;;;;;;11.93;3.78;;;;;;;;;;5089111;28;20830;-75
2023/02/13 08:01:34;;;;;;;15.52;4.15;;;;;;;;;;5095239;28;20056;-75
2023/02/13 08:04:05;;;;;;;8.00;3.63;;;;;;;;;;5088279;28;20427;-75
2023/02/13 08:06:37;;;;;;;7.22;3.72;;;;;;;;;;5088294;28;20065;-75
2023/02/13 08:12:09;;;;;;;11.27;3.83;;;;;;;;;;5088213;28;20062;-75
2023/02/13 08:14:41;;;;;;;13.35;3.70;;;;;;;;;;5088155;28;20035;-76
2023/02/13 08:17:11;;;;;;;13.40;3.90;;;;;;;;;;5087761;28;20047;-75
2023/02/13 08:19:41;;;;;;;10.00;3.47;;;;;;;;;;5088996;28;20415;-75
2023/02/13 08:22:11;;;;;;;12.50;4.38;;;;;;;;;;5069050;28;20534;-75
2023/02/13 08:27:33;;;;;;;6.95;4.20;;;;;;;;;;5076225;28;20063;-75
2023/02/13 08:30:04;;;;;;;13.75;4.30;;;;;;;;;;5088066;28;20056;-75
2023/02/13 08:32:34;;;;;;;17.42;4.10;;;;;;;;;;5087931;28;20048;-75
2023/02/13 08:35:25;;;;;;;11.15;3.83;;;;;;;;;;5088108;28;20058;-75
2023/02/13 08:38:03;;;;;;;14.15;4.50;;;;;;;;;;5087314;28;20055;-75
2023/02/13 08:40:34;;;;;;;12.98;4.10;;;;;;;;;;5087694;28;20039;-75
2023/02/13 08:43:05;;;;;;;6.85;3.95;;;;;;;;;;5087729;28;20044;-75
2023/02/13 08:45:36;;;;;;;11.75;4.65;;;;;;;;;;5087813;28;20048;-76
2023/02/13 08:48:07;;;;;;;11.93;3.90;;;;;;;;;;5088152;28;20052;-75
2023/02/13 08:50:42;;;;;;;13.23;4.00;;;;;;;;;;5088177;28;20048;-75
2023/02/13 08:53:13;;;;;;;8.10;4.70;;;;;;;;;;5069404;28;20047;-75
2023/02/13 08:55:50;;;;;;;12.10;3.90;;;;;;;;;;5087713;28;20052;-75
2023/02/13 08:58:22;;;;;;;8.63;3.63;;;;;;;;;;5087295;28;20036;-76
2023/02/13 09:00:52;;;;;;;12.82;4.03;;;;;;;;;;5087576;28;20047;-76
2023/02/13 09:03:23;;;;;;;18.67;4.28;;;;;;;;;;5087699;28;20052;-76
2023/02/13 09:05:57;;;;;;;15.85;4.72;;;;;;;;;;5087183;28;20040;-75
2023/02/13 09:08:29;;;;;;;9.23;4.07;;;;;;;;;;5070102;28;20043;-75
2023/02/13 09:11:18;;;;;;;10.63;4.13;;;;;;;;;;5082065;28;20059;-77
2023/02/13 09:13:52;;;;;;;8.23;4.20;;;;;;;;;;5087329;28;20048;-77
2023/02/13 09:16:23;;;;;;;18.88;4.57;;;;;;;;;;5087195;28;20043;-76
2023/02/13 09:18:53;;;;;;;24.65;4.47;;;;;;;;;;5086858;28;20044;-76
2023/02/13 09:21:27;;;;;;;13.93;4.63;;;;;;;;;;5086857;28;20063;-75
2023/02/13 09:23:58;;;;;;;21.02;4.85;;;;;;;;;;5087151;28;20052;-78
2023/02/13 09:26:29;;;;;;;23.92;5.00;;;;;;;;;;5069238;28;20052;-76
2023/02/13 09:29:00;;;;;;;15.57;4.35;;;;;;;;;;5087386;28;20521;-76
2023/02/13 09:31:32;;;;;;;16.45;4.75;;;;;;;;;;5086804;28;20491;-76
2023/02/13 09:34:03;;;;;;;22.23;4.88;;;;;;;;;;5069558;28;20616;-76
2023/02/13 09:36:35;;;;;;;15.68;4.35;;;;;;;;;;5086793;28;20055;-75
2023/02/13 09:39:05;;;;;;;8.40;4.22;;;;;;;;;;5068177;28;20620;-80
2023/02/13 09:41:40;;;;;;;13.07;4.50;;;;;;;;;;5068294;28;20048;-76
2023/02/13 09:44:32;;;;;;;;;;;;;;;;;;5087210;28;20044;-76
2023/02/13 09:47:17;;;;;;;10.43;4.07;;;;;;;;;;5086660;28;19924;-75
2023/02/13 09:49:54;;;;;;;22.15;4.45;;;;;;;;;;5087115;28;20605;-75
2023/02/13 09:52:31;;;;;;;14.30;4.95;;;;;;;;;;5087135;28;20044;-75
2023/02/13 09:55:06;;;;;;;24.48;4.97;;;;;;;;;;5086181;28;20044;-76
2023/02/13 09:58:04;;;;;;;17.55;4.43;;;;;;;;;;5069848;28;20047;-78
2023/02/13 10:00:41;;;;;;;12.20;3.92;;;;;;;;;;5086479;28;20047;-77
2023/02/13 10:03:21;;;;;;;19.50;4.70;;;;;;;;;;5086161;28;20047;-76
2023/02/13 10:06:36;;;;;;;19.13;4.70;;;;;;;;;;5086673;28;20380;-76
2023/02/13 10:09:30;;;;;;;20.08;4.78;;;;;;;;;;5086459;28;20059;-78
2023/02/13 10:12:29;;;;;;;33.80;5.47;;;;;;;;;;5086857;28;20048;-76
2023/02/13 10:15:27;;;;;;;19.25;5.72;;;;;;;;;;5052488;28;20521;-76
2023/02/13 10:18:22;;;;;;;31.95;5.78;;;;;;;;;;5070878;28;20047;-76
2023/02/13 10:20:56;;;;;;;21.50;5.97;;;;;;;;;;5086618;28;20059;-77
2023/02/13 10:24:06;;;;;;;36.78;8.43;;;;;;;;;;5086455;28;20051;-78
2023/02/13 10:26:44;;;;;;;16.77;4.85;;;;;;;;;;5086771;28;20051;-76
2023/02/13 10:36:02;;;;;;;8.02;4.55;;;;;;;;;;5086282;28;20052;-76
2023/02/13 10:38:35;;;;;;;15.85;4.70;;;;;;;;;;5085808;28;20071;-76
2023/02/13 10:41:24;;;;;;;33.40;7.25;;;;;;;;;;5087159;28;20044;-76
2023/02/13 10:44:02;;;;;;;32.80;4.85;;;;;;;;;;5086893;28;20552;-75
2023/02/13 10:47:10;;;;;;;24.15;5.00;;;;;;;;;;5087116;28;20509;-74
2023/02/13 10:50:23;;;;;;;16.42;4.07;;;;;;;;;;5106302;28;20058;-74
2023/02/13 10:56:42;;;;;;;9.55;4.82;;;;;;;;;;5099308;28;20058;-74
2023/02/13 10:59:26;;;;;;;8.05;3.05;;;;;;;;;;5105682;28;20066;-75
2023/02/13 11:02:08;;;;;;;7.00;3.67;;;;;;;;;;5106276;28;20051;-74
2023/02/13 11:04:40;;;;;;;6.93;3.28;;;;;;;;;;5106552;28;20412;-75
2023/02/13 11:07:18;;;;;;;9.50;3.42;;;;;;;;;;5106426;28;20047;-76
2023/02/13 11:09:55;;;;;;;11.82;2.63;;;;;;;;;;5109899;28;20043;-75
2023/02/13 11:12:30;;;;;;;5.45;2.58;;;;;;;;;;5109872;28;20043;-76
2023/02/13 11:15:07;;;;;;;9.13;2.70;;;;;;;;;;5110068;28;20047;-76
2023/02/13 11:17:42;;;;;;;6.18;2.78;;;;;;;;;;5109886;28;20048;-77
2023/02/13 11:20:29;;;;;;;12.00;2.45;;;;;;;;;;5109350;28;20047;-76
2023/02/13 11:23:31;;;;;;;9.43;2.70;;;;;;;;;;5113622;28;20062;-76
2023/02/13 11:26:13;;;;;;;11.98;2.90;;;;;;;;;;5090693;28;20047;-75
2023/02/13 11:29:00;;;;;;;5.85;2.33;;;;;;;;;;5109867;28;20051;-79
2023/02/13 11:31:30;;;;;;;;;;;;;;;;;;5109619;28;20047;-75
2023/02/13 11:34:21;;;;;;;10.25;2.28;;;;;;;;;;5091506;28;19924;-76
2023/02/13 11:36:54;;;;;;;12.27;2.65;;;;;;;;;;5109205;28;20043;-79
2023/02/13 11:39:26;;;;;;;9.05;2.60;;;;;;;;;;5109301;28;20051;-76
2023/02/13 11:41:56;;;;;;;9.32;2.35;;;;;;;;;;5109775;28;20418;-75
2023/02/13 11:44:32;;;;;;;4.03;2.22;;;;;;;;;;5091537;28;20043;-76
2023/02/13 11:47:03;;;;;;;7.68;2.33;;;;;;;;;;5109250;28;20380;-77
2023/02/13 11:49:37;;;;;;;8.02;5.15;;;;;;;;;;5108554;28;20047;-77
2023/02/13 11:52:33;;;;;;;19.92;3.55;;;;;;;;;;5109398;28;20048;-77
2023/02/13 11:55:23;;;;;;;10.25;2.25;;;;;;;;;;5109296;28;20065;-76
2023/02/13 11:58:03;;;;;;;5.25;2.28;;;;;;;;;;5109401;28;20051;-76
2023/02/13 12:00:40;;;;;;;9.05;2.40;;;;;;;;;;5109402;28;20568;-75
2023/02/13 12:03:30;;;;;;;5.00;2.70;;;;;;;;;;5108632;28;20055;-76
2023/02/13 12:06:11;;;;;;;8.43;2.53;;;;;;;;;;5089984;28;20059;-76
2023/02/13 12:08:47;;;;;;;7.50;2.45;;;;;;;;;;5109372;28;20052;-76
2023/02/13 12:11:23;;;;;;;5.53;2.17;;;;;;;;;;5108984;28;20129;-76
2023/02/13 12:13:55;;;;;;;5.43;2.10;;;;;;;;;;5089972;28;20039;-77
2023/02/13 12:16:46;;;;;;;6.18;1.95;;;;;;;;;;5109172;28;20537;-77
2023/02/13 12:19:48;;;;;;;4.78;1.92;;;;;;;;;;5108767;28;20039;-77
2023/02/13 12:22:44;;;;;;;4.80;2.50;;;;;;;;;;5109625;28;20044;-76
2023/02/13 12:25:29;;;;;;;3.00;1.58;;;;;;;;;;5109349;28;20047;-77
2023/02/13 12:28:23;;;;;;;4.45;1.90;;;;;;;;;;5108173;28;20494;-76
2023/02/13 12:31:42;;;;;;;3.17;2.15;;;;;;;;;;5108620;28;20102;-77
2023/02/13 12:34:42;;;;;;;4.55;1.88;;;;;;;;;;5108206;28;20055;-76
2023/02/13 12:37:34;;;;;;;2.50;1.73;;;;;;;;;;5089306;28;20051;-77
2023/02/13 12:40:32;;;;;;;7.70;2.15;;;;;;;;;;5108440;28;20043;-75
2023/02/13 12:43:27;;;;;;;5.35;2.03;;;;;;;;;;5108138;28;20047;-77
2023/02/13 12:46:25;;;;;;;4.18;1.58;;;;;;;;;;5108316;28;20530;-78
2023/02/13 12:49:17;;;;;;;12.10;3.10;;;;;;;;;;5108141;28;20067;-77
2023/02/13 12:52:06;;;;;;;7.70;2.20;;;;;;;;;;5107944;28;20048;-78
2023/02/13 12:55:03;;;;;;;4.80;2.40;;;;;;;;;;5105056;28;20075;-77
2023/02/13 12:57:57;;;;;;;6.18;2.35;;;;;;;;;;5108236;28;20047;-77
2023/02/13 13:00:54;;;;;;;14.00;3.05;;;;;;;;;;5107887;28;20601;-77
2023/02/13 13:03:53;;;;;;;4.03;2.08;;;;;;;;;;5108238;28;20410;-76
2023/02/13 13:07:21;;;;;;;7.32;2.33;;;;;;;;;;5107041;28;20070;-76
2023/02/13 13:10:16;;;;;;;5.32;1.60;;;;;;;;;;5025430;28;20045;-76
2023/02/13 13:12:58;;;;;;;2.83;1.52;;;;;;;;;;5024190;28;20041;-77
2023/02/13 13:16:05;;;;;;;5.88;1.40;;;;;;;;;;5100715;28;20064;-78
2023/02/13 13:19:12;;;;;;;4.53;1.60;;;;;;;;;;5107608;28;20043;-77
2023/02/13 13:22:04;;;;;;;3.13;1.20;;;;;;;;;;5106554;28;20059;-76
2023/02/13 13:24:41;;;;;;;1.92;1.40;;;;;;;;;;5107478;28;20615;-77
2023/02/13 13:27:37;;;;;;;4.60;1.55;;;;;;;;;;5107022;28;20569;-76
2023/02/13 13:30:36;;;;;;;6.63;1.38;;;;;;;;;;5106801;28;20517;-78
2023/02/13 13:33:17;;;;;;;7.97;1.83;;;;;;;;;;5087863;28;20059;-77
2023/02/13 13:36:00;;;;;;;1.63;1.30;;;;;;;;;;5107182;28;20051;-81
2023/02/13 13:38:37;;;;;;;11.07;1.73;;;;;;;;;;5107301;28;20054;-76
2023/02/13 13:41:32;;;;;;;2.95;1.30;;;;;;;;;;5107183;28;20055;-75
2023/02/13 13:44:21;;;;;;;5.38;1.50;;;;;;;;;;5107276;28;20375;-77
2023/02/13 13:47:00;;;;;;;5.57;1.35;;;;;;;;;;5106875;28;20040;-74
2023/02/13 13:49:36;;;;;;;3.97;1.30;;;;;;;;;;5089544;28;20047;-76
2023/02/13 13:52:36;;;;;;;3.88;1.45;;;;;;;;;;5088019;28;20417;-81
2023/02/13 13:55:45;;;;;;;3.13;1.40;;;;;;;;;;5102388;28;20421;-81
2023/02/13 13:58:37;;;;;;;3.03;1.17;;;;;;;;;;5107191;28;20043;-77
2023/02/13 14:01:16;;;;;;;3.88;1.20;;;;;;;;;;5107230;28;20050;-78
2023/02/13 14:04:08;;;;;;;5.28;1.52;;;;;;;;;;5106793;28;20047;-77
2023/02/13 14:06:39;;;;;;;2.28;1.42;;;;;;;;;;5107134;28;20524;-76
2023/02/13 14:09:42;;;;;;;7.35;1.55;;;;;;;;;;5106701;28;20043;-75
2023/02/13 14:12:25;;;;;;;4.22;1.40;;;;;;;;;;5107173;28;20044;-77
2023/02/13 14:15:00;;;;;;;4.78;1.40;;;;;;;;;;5107347;28;20040;-76
2023/02/13 14:17:49;;;;;;;3.72;1.30;;;;;;;;;;5088181;28;20062;-77
2023/02/13 14:20:36;;;;;;;3.08;1.40;;;;;;;;;;5107557;28;20039;-76
2023/02/13 14:23:26;;;;;;;3.05;1.70;;;;;;;;;;5107088;28;20048;-77
2023/02/13 14:26:15;;;;;;;2.13;1.52;;;;;;;;;;5107140;28;20504;-78
2023/02/13 14:28:49;;;;;;;4.93;1.75;;;;;;;;;;5106546;28;20051;-78
2023/02/13 14:31:22;;;;;;;3.92;1.33;;;;;;;;;;5106724;28;20052;-78
2023/02/13 14:34:01;;;;;;;4.70;1.33;;;;;;;;;;5107066;28;20048;-76
2023/02/13 14:36:36;;;;;;;5.55;1.35;;;;;;;;;;5107166;28;20044;-78
2023/02/13 14:39:34;;;;;;;4.78;1.50;;;;;;;;;;5106483;28;20058;-78
2023/02/13 14:42:24;;;;;;;4.55;1.17;;;;;;;;;;5108606;28;20047;-77
2023/02/13 14:45:01;;;;;;;3.53;1.45;;;;;;;;;;5111362;28;20047;-77
2023/02/13 14:47:41;;;;;;;2.53;1.30;;;;;;;;;;5110787;28;20787;-76
2023/02/13 14:50:28;;;;;;;2.08;1.42;;;;;;;;;;5110356;28;20054;-77
2023/02/13 14:53:02;;;;;;;2.55;1.20;;;;;;;;;;5108979;28;20525;-77
2023/02/13 14:55:37;;;;;;;2.70;1.40;;;;;;;;;;5092605;28;20062;-75
2023/02/13 14:58:23;;;;;;;3.47;1.52;;;;;;;;;;5110253;28;20486;-77
2023/02/13 15:01:06;;;;;;;4.38;1.30;;;;;;;;;;5110356;28;20047;-78
2023/02/13 15:03:39;;;;;;;2.40;1.30;;;;;;;;;;5110774;28;20046;-78
2023/02/13 15:06:32;;;;;;;3.35;1.33;;;;;;;;;;5110350;28;20051;-76
2023/02/13 15:09:16;;;;;;;6.25;1.90;;;;;;;;;;5110533;28;20047;-75
2023/02/13 15:11:47;;;;;;;3.40;1.48;;;;;;;;;;5110223;28;20048;-76
2023/02/13 15:14:27;;;;;;;4.95;1.98;;;;;;;;;;5092483;28;20047;-78
2023/02/13 15:17:18;;;;;;;2.83;1.65;;;;;;;;;;5110144;28;20040;-75
2023/02/13 15:19:53;;;;;;;6.05;1.70;;;;;;;;;;5110298;28;20051;-78
2023/02/13 15:22:31;;;;;;;5.38;1.30;;;;;;;;;;5109834;28;20051;-77
2023/02/13 15:25:03;;;;;;;2.55;1.63;;;;;;;;;;5109601;28;20051;-77
2023/02/13 15:27:40;;;;;;;4.40;1.52;;;;;;;;;;5109755;28;20047;-76
2023/02/13 15:30:24;;;;;;;6.80;1.77;;;;;;;;;;5109655;28;20402;-78
2023/02/13 15:33:00;;;;;;;4.00;1.70;;;;;;;;;;5110047;28;20044;-75
2023/02/13 15:35:33;;;;;;;4.20;1.75;;;;;;;;;;5110424;28;20052;-78
2023/02/13 15:38:27;;;;;;;4.35;1.30;;;;;;;;;;5109728;28;20039;-76
2023/02/13 15:41:13;;;;;;;6.50;1.70;;;;;;;;;;5074299;28;20047;-76
2023/02/13 15:43:47;;;;;;;5.72;1.58;;;;;;;;;;5109444;28;20039;-78
2023/02/13 15:46:30;;;;;;;5.97;1.58;;;;;;;;;;5109136;28;20047;-76
2023/02/13 15:49:07;;;;;;;6.65;1.67;;;;;;;;;;5108521;28;20051;-77
2023/02/13 15:51:38;;;;;;;7.97;1.65;;;;;;;;;;5109777;28;20066;-77
2023/02/13 15:54:29;;;;;;;4.22;1.40;;;;;;;;;;5108530;28;20035;-79
2023/02/13 15:57:04;;;;;;;1.92;1.30;;;;;;;;;;5109340;28;20043;-78
2023/02/13 15:59:38;;;;;;;4.30;1.50;;;;;;;;;;5109482;28;20052;-76
2023/02/13 16:02:28;;;;;;;6.25;1.60;;;;;;;;;;5109135;28;20047;-80
2023/02/13 16:05:01;;;;;;;5.53;1.60;;;;;;;;;;5109591;28;20059;-74
2023/02/13 16:07:50;;;;;;;8.27;1.38;;;;;;;;;;5109110;28;20517;-81
2023/02/13 16:10:32;;;;;;;2.95;1.58;;;;;;;;;;5109464;28;20510;-76
2023/02/13 16:13:06;;;;;;;7.57;1.98;;;;;;;;;;5089576;28;20059;-77
2023/02/13 16:15:36;;;;;;;5.38;1.80;;;;;;;;;;5108775;28;20040;-74
2023/02/13 16:18:19;;;;;;;4.30;2.00;;;;;;;;;;5108423;28;20043;-77
2023/02/13 16:20:54;;;;;;;3.58;1.63;;;;;;;;;;5108803;28;20050;-74
2023/02/13 16:23:26;;;;;;;3.60;1.60;;;;;;;;;;5108661;28;20059;-77
2023/02/13 16:26:03;;;;;;;4.65;2.17;;;;;;;;;;5108505;28;20047;-75
2023/02/13 16:28:33;;;;;;;5.10;2.00;;;;;;;;;;5108449;28;20047;-76
2023/02/13 16:31:04;;;;;;;7.70;1.50;;;;;;;;;;5108750;28;20051;-75
2023/02/13 16:33:42;;;;;;;3.28;1.70;;;;;;;;;;5108911;28;20047;-75
2023/02/13 16:36:14;;;;;;;6.22;1.73;;;;;;;;;;5108488;28;20402;-77
2023/02/13 16:38:47;;;;;;;6.38;1.83;;;;;;;;;;5108566;28;20043;-75
2023/02/13 16:41:23;;;;;;;5.38;1.67;;;;;;;;;;5108330;28;20047;-76
2023/02/13 16:43:59;;;;;;;5.82;1.70;;;;;;;;;;5107916;28;20043;-79
2023/02/13 16:46:36;;;;;;;5.38;1.85;;;;;;;;;;5108258;28;20410;-77
2023/02/13 16:49:08;;;;;;;2.92;1.63;;;;;;;;;;5109035;28;20043;-75
2023/02/13 16:51:59;;;;;;;3.30;1.40;;;;;;;;;;5107627;28;20039;-76
2023/02/13 16:54:55;;;;;;;5.57;1.90;;;;;;;;;;5108220;28;20050;-74
2023/02/13 16:57:34;;;;;;;3.92;1.70;;;;;;;;;;5108415;28;20428;-75
2023/02/13 17:00:22;;;;;;;8.55;1.88;;;;;;;;;;5107627;28;20044;-76